createdAt,value
2023-03-14T00:01:17.314Z,78.00
2023-03-14T00:03:44.362Z,78.30
2023-03-14T00:06:12.249Z,78.20
2023-03-14T00:08:39.599Z,78.50
2023-03-14T00:11:18.529Z,78.60
2023-03-14T00:13:49.259Z,78.90
2023-03-14T00:16:16.292Z,78.90
2023-03-14T00:18:43.322Z,79.30
2023-03-14T00:21:11.595Z,79.10
2023-03-14T00:23:40.943Z,79.10
2023-03-14T00:26:10.973Z,79.20
2023-03-14T00:28:38.432Z,79.30
2023-03-14T00:31:07.357Z,79.40
2023-03-14T00:33:35.108Z,79.50
2023-03-14T00:36:09.926Z,79.60
2023-03-14T00:38:39.024Z,79.80
2023-03-14T00:41:11.180Z,79.90
2023-03-14T00:43:38.754Z,80.10
2023-03-14T00:46:06.224Z,80.10
2023-03-14T00:48:33.741Z,80.30
2023-03-14T00:51:02.263Z,80.40
2023-03-14T00:53:29.201Z,80.60
2023-03-14T00:55:56.209Z,80.70
2023-03-14T00:58:23.469Z,80.80
2023-03-14T01:00:50.378Z,80.80
2023-03-14T01:03:18.111Z,80.70
2023-03-14T01:05:45.106Z,80.80
2023-03-14T01:08:12.909Z,80.80
2023-03-14T01:10:41.273Z,80.80
2023-03-14T01:13:09.284Z,81.00
2023-03-14T01:15:38.397Z,81.00
2023-03-14T01:18:05.890Z,81.10
2023-03-14T01:20:33.540Z,81.10
2023-03-14T01:23:00.471Z,81.20
2023-03-14T01:25:27.750Z,81.10
2023-03-14T01:27:55.165Z,81.10
2023-03-14T01:30:22.962Z,81.20
2023-03-14T01:32:50.182Z,81.20
2023-03-14T01:35:17.364Z,81.30
2023-03-14T01:37:44.394Z,81.40
2023-03-14T01:40:18.103Z,81.60
2023-03-14T01:42:47.370Z,81.70
2023-03-14T01:45:51.804Z,81.70
2023-03-14T01:48:18.832Z,81.90
2023-03-14T01:50:45.812Z,81.60
2023-03-14T01:53:12.876Z,81.70
2023-03-14T01:55:40.086Z,81.90
2023-03-14T01:58:07.292Z,82.00
2023-03-14T02:00:34.581Z,82.00
2023-03-14T02:03:06.907Z,82.00
2023-03-14T02:05:36.521Z,82.10
2023-03-14T02:08:15.057Z,81.80
2023-03-14T02:10:50.486Z,81.90
2023-03-14T02:13:23.096Z,82.00
2023-03-14T02:16:22.245Z,82.00
2023-03-14T02:19:09.612Z,82.10
2023-03-14T02:22:01.708Z,82.30
2023-03-14T02:25:05.017Z,82.30
2023-03-14T02:27:32.198Z,82.30
2023-03-14T02:30:28.003Z,82.30
2023-03-14T02:33:05.424Z,82.60
2023-03-14T02:35:44.586Z,82.70
2023-03-14T02:38:18.554Z,82.80
2023-03-14T02:40:47.004Z,82.90
2023-03-14T02:43:14.371Z,82.80
2023-03-14T02:45:49.328Z,82.80
2023-03-14T02:48:27.364Z,82.80
2023-03-14T02:50:57.900Z,82.60
2023-03-14T02:53:32.908Z,82.40
2023-03-14T02:56:04.506Z,82.30
2023-03-14T02:58:33.328Z,82.10
2023-03-14T03:01:07.997Z,82.00
2023-03-14T03:03:35.049Z,82.10
2023-03-14T03:06:02.123Z,82.10
2023-03-14T03:08:29.803Z,82.20
2023-03-14T03:10:59.002Z,82.20
2023-03-14T03:13:27.804Z,82.30
2023-03-14T03:15:56.768Z,82.60
2023-03-14T03:18:23.896Z,82.60
2023-03-14T03:20:50.866Z,82.60
2023-03-14T03:23:17.812Z,82.80
2023-03-14T03:25:50.701Z,82.70
2023-03-14T03:28:17.681Z,82.40
2023-03-14T03:30:45.069Z,82.40
2023-03-14T03:33:13.500Z,82.60
2023-03-14T03:35:48.043Z,82.80
2023-03-14T03:38:17.975Z,82.50
2023-03-14T03:40:46.564Z,81.70
2023-03-14T03:43:13.672Z,81.40
2023-03-14T03:45:43.797Z,80.90
2023-03-14T03:48:11.758Z,80.90
2023-03-14T03:50:44.465Z,81.10
2023-03-14T03:53:13.691Z,80.90
2023-03-14T03:55:43.869Z,80.10
2023-03-14T03:58:11.554Z,79.80
2023-03-14T04:00:38.460Z,79.80
2023-03-14T04:03:05.721Z,79.40
2023-03-14T04:05:32.702Z,77.90
2023-03-14T04:08:05.029Z,77.70
2023-03-14T04:10:36.640Z,77.30
2023-03-14T04:13:17.736Z,76.80
2023-03-14T04:15:49.415Z,76.50
2023-03-14T04:18:23.014Z,76.40
2023-03-14T04:20:59.493Z,75.90
2023-03-14T04:23:39.104Z,75.40
2023-03-14T04:26:06.619Z,75.30
2023-03-14T04:28:36.970Z,75.20
2023-03-14T04:31:20.869Z,75.30
2023-03-14T04:33:48.573Z,75.20
2023-03-14T04:36:19.477Z,75.00
2023-03-14T04:38:46.784Z,74.70
2023-03-14T04:41:17.857Z,74.60
2023-03-14T04:43:45.041Z,74.40
2023-03-14T04:46:13.485Z,74.40
2023-03-14T04:48:40.654Z,74.40
2023-03-14T04:51:08.825Z,74.30
2023-03-14T04:53:37.999Z,74.10
2023-03-14T04:56:09.024Z,73.80
2023-03-14T04:58:40.314Z,73.90
2023-03-14T05:01:08.472Z,73.90
2023-03-14T05:03:58.470Z,73.80
2023-03-14T05:06:43.908Z,73.70
2023-03-14T05:09:23.873Z,73.70
2023-03-14T05:12:03.208Z,73.70
2023-03-14T05:14:56.106Z,73.80
2023-03-14T05:17:43.508Z,73.90
2023-03-14T05:20:29.149Z,73.80
2023-03-14T05:23:16.354Z,73.90
2023-03-14T05:25:51.959Z,73.80
2023-03-14T05:28:41.759Z,74.00
2023-03-14T05:31:19.317Z,74.10
2023-03-14T05:34:00.809Z,74.10
2023-03-14T05:36:39.711Z,74.10
2023-03-14T05:39:25.342Z,74.20
2023-03-14T05:42:03.864Z,74.40
2023-03-14T05:44:49.401Z,74.30
2023-03-14T05:47:34.947Z,74.30
2023-03-14T05:50:26.152Z,74.50
2023-03-14T05:53:11.106Z,74.50
2023-03-14T05:56:01.027Z,74.60
2023-03-14T05:58:48.231Z,74.80
2023-03-14T06:01:41.506Z,76.10
2023-03-14T06:04:16.751Z,76.40
2023-03-14T06:06:47.295Z,77.10
2023-03-14T06:09:14.385Z,78.00
2023-03-14T06:11:43.674Z,78.50
2023-03-14T06:14:12.004Z,79.00
2023-03-14T06:16:42.261Z,79.40
2023-03-14T06:19:10.300Z,80.40
2023-03-14T06:21:38.312Z,81.20
2023-03-14T06:24:05.361Z,82.20
2023-03-14T06:26:38.118Z,83.70
2023-03-14T06:29:06.028Z,83.90
2023-03-14T06:31:34.664Z,85.70
2023-03-14T06:34:04.395Z,85.70
2023-03-14T06:36:32.299Z,85.80
2023-03-14T06:38:59.554Z,85.80
2023-03-14T06:41:28.555Z,85.40
2023-03-14T06:43:56.679Z,85.70
2023-03-14T06:46:24.026Z,86.70
2023-03-14T06:48:51.297Z,87.60
2023-03-14T06:51:18.442Z,88.60
2023-03-14T06:53:45.830Z,89.50
2023-03-14T06:56:15.816Z,90.00
2023-03-14T06:58:42.828Z,90.30
2023-03-14T07:01:23.516Z,90.70
2023-03-14T07:03:51.329Z,91.00
2023-03-14T07:06:18.524Z,91.30
2023-03-14T07:08:45.693Z,91.70
2023-03-14T07:11:13.227Z,92.00
2023-03-14T07:13:40.580Z,92.50
2023-03-14T07:16:09.405Z,92.70
2023-03-14T07:18:38.526Z,93.00
2023-03-14T07:21:08.674Z,93.30
2023-03-14T07:23:35.791Z,93.60
2023-03-14T07:26:03.134Z,93.90
2023-03-14T07:28:32.663Z,94.20
2023-03-14T07:31:05.353Z,94.30
2023-03-14T07:33:33.656Z,94.40
2023-03-14T07:36:01.801Z,94.40
2023-03-14T07:38:29.069Z,94.70
2023-03-14T07:41:10.762Z,95.00
2023-03-14T07:43:44.140Z,95.30
2023-03-14T07:46:11.107Z,95.10
2023-03-14T07:48:38.057Z,95.30
2023-03-14T07:51:05.190Z,95.80
2023-03-14T07:53:32.102Z,96.30
2023-03-14T07:55:59.118Z,96.90
2023-03-14T07:58:26.249Z,97.60
2023-03-14T08:00:54.150Z,98.30
2023-03-14T08:03:21.361Z,98.80
2023-03-14T08:05:50.585Z,99.20
2023-03-14T08:08:17.906Z,99.60
2023-03-14T08:10:45.128Z,99.90
2023-03-14T08:13:12.492Z,99.90
2023-03-14T08:15:39.887Z,99.90
2023-03-14T08:18:07.442Z,99.90
2023-03-14T08:20:34.361Z,99.90
2023-03-14T08:23:02.092Z,99.90
2023-03-14T08:25:29.897Z,99.90
2023-03-14T08:27:57.042Z,99.90
2023-03-14T08:30:24.098Z,99.90
2023-03-14T08:32:51.217Z,99.90
2023-03-14T08:35:18.509Z,99.90
2023-03-14T08:37:45.582Z,99.90
2023-03-14T08:40:13.131Z,99.90
2023-03-14T08:42:41.225Z,99.90
2023-03-14T08:45:09.396Z,99.90
2023-03-14T08:47:36.335Z,99.90
2023-03-14T08:50:07.997Z,99.90
2023-03-14T08:52:35.294Z,99.90
2023-03-14T08:55:02.221Z,99.90
2023-03-14T08:57:29.238Z,99.90
2023-03-14T08:59:56.961Z,99.90
2023-03-14T09:02:25.038Z,99.90
2023-03-14T09:04:52.784Z,99.90
2023-03-14T09:07:20.114Z,99.90
2023-03-14T09:09:47.163Z,99.90
2023-03-14T09:12:14.203Z,99.90
2023-03-14T09:14:41.225Z,99.90
2023-03-14T09:17:08.753Z,99.90
2023-03-14T09:19:35.909Z,99.90
2023-03-14T09:22:03.757Z,99.90
2023-03-14T09:24:30.808Z,99.90
2023-03-14T09:26:58.192Z,99.90
2023-03-14T09:29:25.594Z,99.90
2023-03-14T09:31:53.016Z,99.90
2023-03-14T09:34:20.161Z,99.90
2023-03-14T09:36:47.136Z,99.90
2023-03-14T09:39:14.105Z,99.90
2023-03-14T09:41:44.311Z,99.90
2023-03-14T09:44:32.943Z,99.90
2023-03-14T09:47:05.973Z,99.90
2023-03-14T09:49:40.022Z,99.90
2023-03-14T09:52:15.252Z,99.90
2023-03-14T09:54:48.188Z,99.90
2023-03-14T09:57:26.532Z,99.90
2023-03-14T10:00:00.962Z,99.90
2023-03-14T10:02:36.571Z,99.90
2023-03-14T10:05:14.698Z,99.90
2023-03-14T10:07:41.900Z,99.90
2023-03-14T10:10:16.603Z,99.90
2023-03-14T10:12:47.568Z,99.90
2023-03-14T10:15:19.250Z,99.90
2023-03-14T10:17:50.268Z,99.90
2023-03-14T10:20:34.259Z,99.90
2023-03-14T10:23:02.976Z,99.90
2023-03-14T10:25:35.778Z,99.90
2023-03-14T10:28:05.178Z,99.90
2023-03-14T10:30:45.794Z,99.90
2023-03-14T10:33:28.072Z,99.90
2023-03-14T10:35:57.072Z,99.90
2023-03-14T10:38:27.403Z,99.90
2023-03-14T10:40:56.241Z,99.90
2023-03-14T10:43:35.769Z,99.90
2023-03-14T10:46:10.957Z,99.90
2023-03-14T10:48:57.957Z,99.90
2023-03-14T10:51:30.178Z,99.90
2023-03-14T10:54:05.017Z,99.90
2023-03-14T10:56:37.678Z,99.90
2023-03-14T10:59:08.528Z,99.90
2023-03-14T11:01:45.017Z,99.90
2023-03-14T11:04:23.908Z,99.90
2023-03-14T11:07:17.756Z,99.90
2023-03-14T11:09:53.406Z,99.90
2023-03-14T11:12:41.781Z,99.90
2023-03-14T11:15:23.446Z,99.90
2023-03-14T11:18:08.315Z,99.90
2023-03-14T11:21:05.922Z,99.90
2023-03-14T11:23:56.888Z,99.90
2023-03-14T11:26:55.722Z,99.90
2023-03-14T11:29:48.825Z,99.90
2023-03-14T11:32:24.122Z,99.90
2023-03-14T11:34:55.872Z,99.90
2023-03-14T11:37:36.985Z,99.90
2023-03-14T11:40:20.667Z,99.90
2023-03-14T11:43:01.183Z,99.90
2023-03-14T11:45:35.532Z,99.90
2023-03-14T11:48:21.106Z,99.90
2023-03-14T11:50:52.914Z,99.90
2023-03-14T11:53:49.551Z,99.90
2023-03-14T11:56:25.835Z,99.90
2023-03-14T11:58:59.514Z,99.90
2023-03-14T12:01:35.015Z,99.90
2023-03-14T12:04:15.002Z,99.90
2023-03-14T12:06:51.808Z,99.90
2023-03-14T12:09:22.262Z,99.90
2023-03-14T12:11:57.480Z,99.90
2023-03-14T12:14:27.367Z,99.90
2023-03-14T12:17:14.652Z,99.90
2023-03-14T12:19:42.923Z,99.90
2023-03-14T12:22:21.838Z,99.90
2023-03-14T12:24:59.968Z,99.60
2023-03-14T12:27:42.370Z,99.30
2023-03-14T12:30:38.667Z,99.00
2023-03-14T12:33:20.469Z,98.20
2023-03-14T12:35:50.298Z,98.90
2023-03-14T12:38:37.880Z,98.30
2023-03-14T12:41:16.568Z,98.40
2023-03-14T12:43:43.815Z,93.10
2023-03-14T12:46:27.496Z,92.20
2023-03-14T12:49:10.066Z,89.40
2023-03-14T12:51:46.114Z,79.70
2023-03-14T12:54:36.571Z,72.20
2023-03-14T12:57:27.388Z,63.50
2023-03-14T13:00:08.246Z,60.80
2023-03-14T13:02:46.270Z,59.20
2023-03-14T13:05:26.089Z,59.00
2023-03-14T13:07:56.243Z,55.80
2023-03-14T13:10:24.290Z,54.00
2023-03-14T13:13:03.753Z,52.30
2023-03-14T13:15:45.185Z,49.60
2023-03-14T13:18:19.456Z,46.80
2023-03-14T13:20:49.550Z,45.60
2023-03-14T13:23:20.652Z,44.40
2023-03-14T13:25:48.724Z,44.50
2023-03-14T13:28:16.596Z,45.20
2023-03-14T13:30:47.729Z,45.00
2023-03-14T13:33:16.048Z,44.80
2023-03-14T13:35:45.070Z,46.00
2023-03-14T13:38:19.415Z,48.40
2023-03-14T13:40:46.901Z,50.70
2023-03-14T13:43:19.145Z,53.10
2023-03-14T13:45:52.446Z,55.10
2023-03-14T13:48:23.212Z,56.70
2023-03-14T13:50:56.499Z,58.70
2023-03-14T13:53:23.961Z,59.40
2023-03-14T13:55:52.472Z,61.60
2023-03-14T13:58:31.934Z,63.40
2023-03-14T14:01:11.499Z,64.80
2023-03-14T14:03:41.642Z,66.70
2023-03-14T14:06:35.577Z,67.70
2023-03-14T14:09:19.416Z,68.30
2023-03-14T14:12:16.104Z,69.20
2023-03-14T14:14:47.426Z,71.00
2023-03-14T14:17:19.625Z,70.90
2023-03-14T14:19:48.483Z,71.00
2023-03-14T14:22:15.781Z,70.00
2023-03-14T14:24:43.166Z,70.00
2023-03-14T14:27:28.260Z,69.80
2023-03-14T14:30:18.551Z,70.30
2023-03-14T14:32:47.790Z,71.10
2023-03-14T14:35:26.026Z,71.80
2023-03-14T14:37:53.512Z,73.20
2023-03-14T14:40:23.926Z,73.80
2023-03-14T14:42:51.578Z,74.70
2023-03-14T14:45:21.741Z,76.20
2023-03-14T14:48:00.702Z,77.90
2023-03-14T14:50:38.658Z,78.00
2023-03-14T14:53:23.342Z,78.30
2023-03-14T14:55:56.896Z,78.70
2023-03-14T14:58:31.097Z,79.40
2023-03-14T15:01:15.502Z,79.70
2023-03-14T15:03:44.981Z,80.60
2023-03-14T15:06:14.274Z,81.40
2023-03-14T15:08:41.938Z,82.20
2023-03-14T15:11:19.041Z,82.80
2023-03-14T15:13:46.950Z,83.60
2023-03-14T15:16:16.878Z,83.80
2023-03-14T15:18:46.925Z,84.00
2023-03-14T15:21:14.098Z,84.00
2023-03-14T15:23:41.483Z,84.70
2023-03-14T15:26:20.317Z,83.00
2023-03-14T15:28:48.039Z,81.90
2023-03-14T15:31:16.246Z,81.30
2023-03-14T15:33:44.999Z,81.90
2023-03-14T15:36:28.076Z,82.90
2023-03-14T15:38:56.368Z,83.70
2023-03-14T15:41:24.123Z,84.60
2023-03-14T15:43:51.812Z,85.10
2023-03-14T15:46:19.458Z,85.60
2023-03-14T15:48:47.182Z,85.80
2023-03-14T15:51:14.731Z,86.10
2023-03-14T15:53:44.144Z,86.40
2023-03-14T15:56:19.911Z,86.80
2023-03-14T15:58:50.186Z,86.90
2023-03-14T16:01:17.854Z,87.30
2023-03-14T16:03:50.078Z,87.30
2023-03-14T16:06:17.170Z,87.50
2023-03-14T16:08:44.124Z,87.50
2023-03-14T16:11:13.245Z,87.80
2023-03-14T16:13:40.330Z,88.10
2023-03-14T16:16:08.980Z,88.40
2023-03-14T16:18:38.217Z,88.70
2023-03-14T16:21:17.360Z,89.10
2023-03-14T16:23:44.624Z,89.50
2023-03-14T16:26:17.757Z,89.70
2023-03-14T16:28:46.094Z,90.00
2023-03-14T16:31:17.005Z,90.10
2023-03-14T16:33:44.889Z,90.10
2023-03-14T16:36:13.638Z,90.10
2023-03-14T16:38:42.609Z,90.20
2023-03-14T16:41:15.358Z,90.20
2023-03-14T16:43:42.921Z,90.30
2023-03-14T16:46:19.133Z,90.40
2023-03-14T16:48:46.880Z,90.70
2023-03-14T16:51:16.368Z,90.80
2023-03-14T16:53:44.646Z,91.00
2023-03-14T16:56:11.975Z,91.10
2023-03-14T16:58:39.270Z,91.10
2023-03-14T17:01:11.140Z,91.10
2023-03-14T17:03:42.686Z,91.30
2023-03-14T17:06:14.220Z,91.60
2023-03-14T17:08:41.516Z,91.90
2023-03-14T17:11:08.725Z,92.10
2023-03-14T17:13:35.779Z,92.20
2023-03-14T17:16:03.578Z,92.50
2023-03-14T17:18:31.556Z,92.80
2023-03-14T17:20:59.579Z,93.10
2023-03-14T17:23:28.279Z,93.50
2023-03-14T17:25:55.906Z,93.70
2023-03-14T17:28:25.182Z,94.00
2023-03-14T17:31:02.868Z,94.40
2023-03-14T17:33:29.916Z,95.10
2023-03-14T17:35:56.957Z,95.40
2023-03-14T17:38:24.201Z,95.70
2023-03-14T17:40:51.441Z,96.10
2023-03-14T17:43:19.174Z,96.40
2023-03-14T17:45:46.375Z,96.80
2023-03-14T17:48:13.560Z,97.30
2023-03-14T17:50:41.132Z,97.90
2023-03-14T17:53:09.015Z,98.30
2023-03-14T17:55:35.940Z,98.90
2023-03-14T17:58:02.963Z,99.60
2023-03-14T18:00:29.970Z,99.90
2023-03-14T18:02:59.108Z,99.90
2023-03-14T18:05:26.981Z,99.90
2023-03-14T18:07:53.954Z,99.90
2023-03-14T18:10:21.761Z,99.90
2023-03-14T18:12:48.660Z,99.90
2023-03-14T18:15:16.760Z,99.90
2023-03-14T18:17:43.674Z,99.90
2023-03-14T18:20:12.804Z,99.90
2023-03-14T18:22:41.373Z,99.90
2023-03-14T18:25:10.255Z,99.90
2023-03-14T18:27:37.785Z,99.90
2023-03-14T18:30:06.033Z,99.90
2023-03-14T18:32:33.053Z,99.90
2023-03-14T18:34:59.952Z,99.90
2023-03-14T18:37:26.915Z,99.90
2023-03-14T18:39:53.898Z,99.90
2023-03-14T18:42:20.876Z,99.90
2023-03-14T18:44:47.969Z,99.90
2023-03-14T18:47:15.041Z,99.90
2023-03-14T18:49:42.033Z,99.90
2023-03-14T18:52:08.955Z,99.90
2023-03-14T18:54:35.969Z,99.90
2023-03-14T18:57:02.929Z,99.90
2023-03-14T18:59:29.931Z,99.90
2023-03-14T19:01:56.931Z,99.90
2023-03-14T19:04:23.845Z,99.90
2023-03-14T19:06:54.036Z,99.90
2023-03-14T19:09:21.180Z,99.90
2023-03-14T19:11:48.065Z,99.90
2023-03-14T19:14:17.692Z,99.90
2023-03-14T19:16:44.730Z,99.90
2023-03-14T19:19:11.869Z,99.90
2023-03-14T19:21:38.893Z,99.90
2023-03-14T19:24:06.673Z,99.90
2023-03-14T19:26:36.065Z,99.90
2023-03-14T19:29:03.231Z,99.90
2023-03-14T19:31:31.593Z,99.90
2023-03-14T19:33:59.711Z,99.90
2023-03-14T19:36:29.652Z,99.90
2023-03-14T19:38:57.158Z,99.90
2023-03-14T19:41:25.334Z,99.90
2023-03-14T19:43:53.339Z,99.90
2023-03-14T19:46:21.692Z,99.90
2023-03-14T19:48:49.548Z,99.90
2023-03-14T19:51:17.475Z,99.90
2023-03-14T19:53:45.648Z,99.90
2023-03-14T19:56:12.724Z,99.90
2023-03-14T19:58:40.905Z,99.90
2023-03-14T20:01:09.189Z,99.90
2023-03-14T20:03:36.899Z,99.90
2023-03-14T20:06:05.470Z,99.90
2023-03-14T20:08:33.291Z,99.90
2023-03-14T20:11:02.960Z,99.90
2023-03-14T20:13:30.018Z,99.90
2023-03-14T20:15:56.982Z,99.90
2023-03-14T20:18:24.078Z,99.90
2023-03-14T20:20:52.156Z,99.90
2023-03-14T20:23:19.307Z,99.90
2023-03-14T20:25:54.198Z,99.90
2023-03-14T20:28:21.332Z,99.90
2023-03-14T20:30:48.947Z,99.90
2023-03-14T20:33:18.639Z,99.90
2023-03-14T20:35:55.253Z,99.90
2023-03-14T20:38:24.192Z,99.90
2023-03-14T20:40:51.257Z,99.90
2023-03-14T20:43:18.212Z,99.90
2023-03-14T20:45:51.865Z,99.90
2023-03-14T20:48:18.906Z,99.90
2023-03-14T20:50:48.196Z,99.90
2023-03-14T20:53:15.419Z,99.90
2023-03-14T20:55:42.527Z,99.90
2023-03-14T20:58:12.906Z,99.90
2023-03-14T21:00:41.252Z,99.90
2023-03-14T21:03:08.298Z,99.90
2023-03-14T21:05:35.393Z,99.90
2023-03-14T21:08:02.428Z,99.90
2023-03-14T21:10:29.423Z,99.90
2023-03-14T21:12:56.400Z,99.90
2023-03-14T21:15:23.386Z,99.90
2023-03-14T21:17:53.577Z,99.90
2023-03-14T21:20:20.807Z,99.90
2023-03-14T21:22:48.086Z,99.90
2023-03-14T21:25:15.093Z,99.90
2023-03-14T21:27:42.383Z,99.90
2023-03-14T21:30:11.445Z,99.90
2023-03-14T21:32:38.667Z,99.90
2023-03-14T21:35:06.001Z,99.90
2023-03-14T21:37:33.004Z,99.90
2023-03-14T21:40:00.774Z,99.90
2023-03-14T21:42:28.036Z,99.90
2023-03-14T21:44:54.953Z,99.90
2023-03-14T21:47:24.710Z,99.90
2023-03-14T21:49:51.985Z,99.90
2023-03-14T21:52:18.988Z,99.90
2023-03-14T21:54:45.931Z,99.90
2023-03-14T21:57:14.486Z,99.90
2023-03-14T21:59:42.730Z,99.90
2023-03-14T22:02:18.369Z,99.90
2023-03-14T22:04:45.730Z,99.90
2023-03-14T22:07:17.337Z,99.90
2023-03-14T22:09:46.060Z,99.90
2023-03-14T22:12:19.054Z,99.90
2023-03-14T22:14:47.123Z,99.90
2023-03-14T22:17:14.759Z,99.90
2023-03-14T22:19:41.649Z,99.90
2023-03-14T22:22:08.777Z,99.90
2023-03-14T22:24:35.749Z,99.90
2023-03-14T22:27:02.694Z,99.90
2023-03-14T22:29:29.664Z,99.90
2023-03-14T22:31:56.705Z,99.90
2023-03-14T22:34:23.666Z,99.90
2023-03-14T22:36:50.602Z,99.90
2023-03-14T22:39:17.569Z,99.90
2023-03-14T22:41:44.500Z,99.90
2023-03-14T22:44:11.478Z,99.90
2023-03-14T22:46:38.376Z,99.90
2023-03-14T22:49:05.289Z,99.90
2023-03-14T22:51:32.290Z,99.90
2023-03-14T22:53:59.171Z,99.90
2023-03-14T22:56:26.105Z,99.90
2023-03-14T22:58:53.067Z,99.90
2023-03-14T23:01:20.170Z,99.90
2023-03-14T23:03:47.136Z,99.90
2023-03-14T23:06:14.818Z,99.90
2023-03-14T23:08:41.909Z,99.90
2023-03-14T23:11:09.112Z,99.90
2023-03-14T23:13:36.309Z,99.90
2023-03-14T23:16:03.242Z,99.90
2023-03-14T23:18:30.202Z,99.90
2023-03-14T23:21:11.545Z,99.90
2023-03-14T23:23:39.644Z,99.90
2023-03-14T23:26:09.222Z,99.90
2023-03-14T23:28:37.100Z,99.90
2023-03-14T23:31:06.628Z,99.90
2023-03-14T23:33:35.145Z,99.90
2023-03-14T23:36:04.347Z,99.90
2023-03-14T23:38:32.170Z,99.90
2023-03-14T23:41:01.661Z,99.90
2023-03-14T23:43:29.641Z,99.90
2023-03-14T23:45:57.225Z,99.90
2023-03-14T23:48:26.515Z,99.90
2023-03-14T23:50:58.385Z,99.90
2023-03-14T23:53:26.925Z,99.90
2023-03-14T23:55:54.299Z,99.90
2023-03-14T23:58:21.547Z,99.90
